createdAt,value
2022-12-29T00:00:47.480Z,4.97
2022-12-29T00:01:58.091Z,5.03
2022-12-29T00:03:33.792Z,5.08
2022-12-29T00:04:35.674Z,5.05
2022-12-29T00:05:37.174Z,5.05
2022-12-29T00:06:38.663Z,5.06
2022-12-29T00:07:40.182Z,4.92
2022-12-29T00:08:41.894Z,5.04
2022-12-29T00:09:43.488Z,4.93
2022-12-29T00:10:45.039Z,4.95
2022-12-29T00:11:46.595Z,4.85
2022-12-29T00:12:48.099Z,5.02
2022-12-29T00:13:51.803Z,4.96
2022-12-29T00:14:53.276Z,5.08
2022-12-29T00:15:54.813Z,5.02
2022-12-29T00:16:56.578Z,5.06
2022-12-29T00:17:58.065Z,5.09
2022-12-29T00:18:59.651Z,4.98
2022-12-29T00:20:01.238Z,5.03
2022-12-29T00:21:02.794Z,5.03
2022-12-29T00:22:04.406Z,5.12
2022-12-29T00:23:05.886Z,5.02
2022-12-29T00:24:10.347Z,5.12
2022-12-29T00:25:13.393Z,5.18
2022-12-29T00:26:17.884Z,5.17
2022-12-29T00:27:19.442Z,5.07
2022-12-29T00:28:20.963Z,5.13
2022-12-29T00:29:23.860Z,5.15
2022-12-29T00:30:25.380Z,5.19
2022-12-29T00:31:26.940Z,5.25
2022-12-29T00:32:28.492Z,5.10
2022-12-29T00:33:31.798Z,5.18
2022-12-29T00:34:34.059Z,5.19
2022-12-29T00:35:40.168Z,5.20
2022-12-29T00:36:44.576Z,5.16
2022-12-29T00:37:48.210Z,5.24
2022-12-29T00:38:52.720Z,5.23
2022-12-29T00:39:54.235Z,5.12
2022-12-29T00:40:55.753Z,5.09
2022-12-29T00:41:57.230Z,5.12
2022-12-29T00:42:58.743Z,5.13
2022-12-29T00:44:00.228Z,5.13
2022-12-29T00:45:03.276Z,5.20
2022-12-29T00:46:04.974Z,5.22
2022-12-29T00:47:06.621Z,5.04
2022-12-29T00:48:08.746Z,5.15
2022-12-29T00:49:12.588Z,5.13
2022-12-29T00:50:14.119Z,5.19
2022-12-29T00:51:15.726Z,5.26
2022-12-29T00:52:17.254Z,5.33
2022-12-29T00:53:25.250Z,5.22
2022-12-29T00:54:27.440Z,5.27
2022-12-29T00:55:29.005Z,5.18
2022-12-29T00:56:30.593Z,5.29
2022-12-29T00:57:32.106Z,5.22
2022-12-29T00:58:33.648Z,5.24
2022-12-29T00:59:35.755Z,5.30
2022-12-29T01:00:38.664Z,5.19
2022-12-29T01:01:40.441Z,5.29
2022-12-29T01:02:42.185Z,5.27
2022-12-29T01:03:43.848Z,5.17
2022-12-29T01:04:45.368Z,5.16
2022-12-29T01:05:46.846Z,5.14
2022-12-29T01:06:49.237Z,5.14
2022-12-29T01:07:50.786Z,5.09
2022-12-29T01:08:52.888Z,5.10
2022-12-29T01:09:54.366Z,5.00
2022-12-29T01:10:59.535Z,5.02
2022-12-29T01:12:01.333Z,4.97
2022-12-29T01:13:21.109Z,5.03
2022-12-29T01:14:23.472Z,4.96
2022-12-29T01:15:24.995Z,4.99
2022-12-29T01:16:27.844Z,5.07
2022-12-29T01:17:29.349Z,5.01
2022-12-29T01:18:30.928Z,5.09
2022-12-29T01:19:32.461Z,5.05
2022-12-29T01:20:33.963Z,5.17
2022-12-29T01:21:35.741Z,5.12
2022-12-29T01:22:37.314Z,5.17
2022-12-29T01:23:38.819Z,5.13
2022-12-29T01:24:40.290Z,5.15
2022-12-29T01:25:41.799Z,5.16
2022-12-29T01:26:43.680Z,5.12
2022-12-29T01:27:45.192Z,5.05
2022-12-29T01:28:46.855Z,5.12
2022-12-29T01:29:48.339Z,5.05
2022-12-29T01:30:49.804Z,5.20
2022-12-29T01:31:52.743Z,5.20
2022-12-29T01:32:54.270Z,5.25
2022-12-29T01:33:55.812Z,5.22
2022-12-29T01:34:57.322Z,5.24
2022-12-29T01:36:00.920Z,5.23
2022-12-29T01:37:02.412Z,5.22
2022-12-29T01:38:03.961Z,5.21
2022-12-29T01:39:05.476Z,5.25
2022-12-29T01:40:07.741Z,5.26
2022-12-29T01:41:10.701Z,5.28
2022-12-29T01:42:17.147Z,5.23
2022-12-29T01:43:19.655Z,5.30
2022-12-29T01:44:49.936Z,5.28
2022-12-29T01:45:54.030Z,5.28
2022-12-29T01:46:56.926Z,5.33
2022-12-29T01:48:02.514Z,5.31
2022-12-29T01:49:12.275Z,5.37
2022-12-29T01:50:18.731Z,5.33
2022-12-29T01:51:21.943Z,5.42
2022-12-29T01:52:25.055Z,5.44
2022-12-29T01:53:32.670Z,5.46
2022-12-29T01:54:39.567Z,5.39
2022-12-29T01:55:45.374Z,5.42
2022-12-29T01:56:47.648Z,5.46
2022-12-29T01:57:52.990Z,5.54
2022-12-29T01:59:01.478Z,5.42
2022-12-29T02:00:07.079Z,5.50
2022-12-29T02:01:09.109Z,5.47
2022-12-29T02:02:12.827Z,5.44
2022-12-29T02:03:15.716Z,5.48
2022-12-29T02:04:17.838Z,5.53
2022-12-29T02:05:25.726Z,5.51
2022-12-29T02:06:30.438Z,5.49
2022-12-29T02:07:32.335Z,5.59
2022-12-29T02:08:33.868Z,5.50
2022-12-29T02:09:35.743Z,5.55
2022-12-29T02:10:37.791Z,5.59
2022-12-29T02:11:39.826Z,5.61
2022-12-29T02:12:41.464Z,5.61
2022-12-29T02:13:42.985Z,5.53
2022-12-29T02:14:44.812Z,5.54
2022-12-29T02:15:54.752Z,5.60
2022-12-29T02:17:10.234Z,5.65
2022-12-29T02:18:24.794Z,5.66
2022-12-29T02:20:24.300Z,5.62
2022-12-29T02:22:00.672Z,5.57
2022-12-29T02:23:25.278Z,5.62
2022-12-29T02:25:08.170Z,5.62
2022-12-29T02:26:30.509Z,5.54
2022-12-29T02:28:01.348Z,5.55
2022-12-29T02:29:21.783Z,5.54
2022-12-29T02:30:51.156Z,5.46
2022-12-29T02:31:58.772Z,5.53
2022-12-29T02:33:13.612Z,5.49
2022-12-29T02:34:23.795Z,5.47
2022-12-29T02:35:35.860Z,5.40
2022-12-29T02:36:44.359Z,5.55
2022-12-29T02:38:00.087Z,5.56
2022-12-29T02:39:08.143Z,5.54
2022-12-29T02:40:19.710Z,5.52
2022-12-29T02:41:31.113Z,5.58
2022-12-29T02:42:36.141Z,5.46
2022-12-29T02:43:40.481Z,5.48
2022-12-29T02:44:52.398Z,5.47
2022-12-29T02:45:59.535Z,5.36
2022-12-29T02:47:06.066Z,5.35
2022-12-29T02:48:16.368Z,5.45
2022-12-29T02:49:23.545Z,5.45
2022-12-29T02:50:32.375Z,5.54
2022-12-29T02:51:38.405Z,5.53
2022-12-29T02:52:47.026Z,5.48
2022-12-29T02:53:49.649Z,5.49
2022-12-29T02:54:51.219Z,5.49
2022-12-29T02:55:52.789Z,5.49
2022-12-29T02:56:54.343Z,5.46
2022-12-29T02:58:17.587Z,5.36
2022-12-29T02:59:20.942Z,5.39
2022-12-29T03:00:22.459Z,5.41
2022-12-29T03:01:35.717Z,5.50
2022-12-29T03:03:12.415Z,5.32
2022-12-29T03:04:25.417Z,5.28
2022-12-29T03:05:52.524Z,5.37
2022-12-29T03:07:10.234Z,5.32
2022-12-29T03:08:20.117Z,5.37
2022-12-29T03:09:30.130Z,5.40
2022-12-29T03:10:41.266Z,5.37
2022-12-29T03:11:50.047Z,5.31
2022-12-29T03:12:57.511Z,5.35
2022-12-29T03:14:03.701Z,5.36
2022-12-29T03:15:11.984Z,5.37
2022-12-29T03:16:23.553Z,5.40
2022-12-29T03:17:35.825Z,5.26
2022-12-29T03:18:48.360Z,5.25
2022-12-29T03:19:53.183Z,5.34
2022-12-29T03:20:58.613Z,5.20
2022-12-29T03:22:03.515Z,5.27
2022-12-29T03:23:07.076Z,5.27
2022-12-29T03:24:09.022Z,5.30
2022-12-29T03:25:15.404Z,5.40
2022-12-29T03:26:19.605Z,5.27
2022-12-29T03:27:37.352Z,5.25
2022-12-29T03:28:43.656Z,5.38
2022-12-29T03:29:49.397Z,5.29
2022-12-29T03:30:51.180Z,5.33
2022-12-29T03:31:54.775Z,5.22
2022-12-29T03:33:01.497Z,5.28
2022-12-29T03:35:11.702Z,5.28
2022-12-29T03:36:18.942Z,5.29
2022-12-29T03:37:24.838Z,5.35
2022-12-29T03:38:34.487Z,5.20
2022-12-29T03:39:36.233Z,5.26
2022-12-29T03:40:41.742Z,5.28
2022-12-29T03:41:45.716Z,5.38
2022-12-29T03:42:48.632Z,5.25
2022-12-29T03:43:51.268Z,5.31
2022-12-29T03:44:56.734Z,5.20
2022-12-29T03:45:58.251Z,5.28
2022-12-29T03:46:59.875Z,5.27
2022-12-29T03:48:02.870Z,5.33
2022-12-29T03:49:04.388Z,5.18
2022-12-29T03:50:06.645Z,5.32
2022-12-29T03:51:09.088Z,5.32
2022-12-29T03:52:10.631Z,5.23
2022-12-29T03:53:12.170Z,5.29
2022-12-29T03:54:13.652Z,5.24
2022-12-29T03:55:15.348Z,5.31
2022-12-29T03:56:16.881Z,5.31
2022-12-29T03:57:19.857Z,5.27
2022-12-29T03:58:21.332Z,5.28
2022-12-29T03:59:23.132Z,5.18
2022-12-29T04:00:24.654Z,5.11
2022-12-29T04:01:26.234Z,5.24
2022-12-29T04:02:27.938Z,5.25
2022-12-29T04:03:30.907Z,5.31
2022-12-29T04:04:32.444Z,5.18
2022-12-29T04:05:34.372Z,5.26
2022-12-29T04:06:35.881Z,5.25
2022-12-29T04:07:37.396Z,5.16
2022-12-29T04:08:38.903Z,5.22
2022-12-29T04:09:40.437Z,5.12
2022-12-29T04:10:41.972Z,5.25
2022-12-29T04:11:43.463Z,5.12
2022-12-29T04:12:45.067Z,5.19
2022-12-29T04:13:46.562Z,5.11
2022-12-29T04:14:48.074Z,5.19
2022-12-29T04:15:49.684Z,5.16
2022-12-29T04:16:51.312Z,5.22
2022-12-29T04:17:52.868Z,5.20
2022-12-29T04:18:55.739Z,5.25
2022-12-29T04:19:57.243Z,5.12
2022-12-29T04:20:58.790Z,5.25
2022-12-29T04:22:00.374Z,5.17
2022-12-29T04:23:02.844Z,5.12
2022-12-29T04:24:05.042Z,5.19
2022-12-29T04:25:07.638Z,5.20
2022-12-29T04:26:10.128Z,5.21
2022-12-29T04:27:11.636Z,5.06
2022-12-29T04:28:13.147Z,5.14
2022-12-29T04:29:16.177Z,5.09
2022-12-29T04:30:17.834Z,5.13
2022-12-29T04:31:19.801Z,4.98
2022-12-29T04:32:21.365Z,5.17
2022-12-29T04:33:23.366Z,5.20
2022-12-29T04:34:26.206Z,5.20
2022-12-29T04:35:27.751Z,5.28
2022-12-29T04:36:30.235Z,5.12
2022-12-29T04:37:31.933Z,5.18
2022-12-29T04:38:33.473Z,5.09
2022-12-29T04:39:34.997Z,5.02
2022-12-29T04:40:36.560Z,5.17
2022-12-29T04:41:38.137Z,5.06
2022-12-29T04:42:39.636Z,5.06
2022-12-29T04:43:41.163Z,4.95
2022-12-29T04:44:45.175Z,5.05
2022-12-29T04:45:47.565Z,4.87
2022-12-29T04:46:49.137Z,4.93
2022-12-29T04:47:50.677Z,4.97
2022-12-29T04:48:52.302Z,4.91
2022-12-29T04:49:55.679Z,4.93
2022-12-29T04:50:57.249Z,4.92
2022-12-29T04:51:58.731Z,4.73
2022-12-29T04:53:00.199Z,4.70
2022-12-29T04:54:01.684Z,4.69
2022-12-29T04:55:04.128Z,4.78
2022-12-29T04:56:06.464Z,4.76
2022-12-29T04:57:07.967Z,4.66
2022-12-29T04:58:09.626Z,4.69
2022-12-29T04:59:11.143Z,4.66
2022-12-29T05:00:13.743Z,4.65
2022-12-29T05:01:15.331Z,4.64
2022-12-29T05:02:17.310Z,4.62
2022-12-29T05:03:20.340Z,4.65
2022-12-29T05:04:22.041Z,4.66
2022-12-29T05:05:24.906Z,4.72
2022-12-29T05:06:26.414Z,4.72
2022-12-29T05:07:27.898Z,4.74
2022-12-29T05:08:29.458Z,4.75
2022-12-29T05:09:30.959Z,4.67
2022-12-29T05:10:32.488Z,4.70
2022-12-29T05:11:33.991Z,4.74
2022-12-29T05:12:37.166Z,4.74
2022-12-29T05:13:38.673Z,4.53
2022-12-29T05:14:40.277Z,4.62
2022-12-29T05:15:41.909Z,4.68
2022-12-29T05:16:43.434Z,4.70
2022-12-29T05:17:44.984Z,4.64
2022-12-29T05:18:46.520Z,4.66
2022-12-29T05:19:48.050Z,4.62
2022-12-29T05:20:50.905Z,4.54
2022-12-29T05:21:52.488Z,4.53
2022-12-29T05:22:54.019Z,4.64
2022-12-29T05:23:55.552Z,4.60
2022-12-29T05:24:57.038Z,4.56
2022-12-29T05:25:58.602Z,4.45
2022-12-29T05:27:00.134Z,4.55
2022-12-29T05:28:01.676Z,4.49
2022-12-29T05:29:03.477Z,4.52
2022-12-29T05:30:05.991Z,4.56
2022-12-29T05:31:07.543Z,4.53
2022-12-29T05:32:09.218Z,4.49
2022-12-29T05:33:10.797Z,4.53
2022-12-29T05:34:12.689Z,4.56
2022-12-29T05:35:14.201Z,4.41
2022-12-29T05:36:17.440Z,4.56
2022-12-29T05:37:20.216Z,4.61
2022-12-29T05:38:21.731Z,4.64
2022-12-29T05:39:23.293Z,4.62
2022-12-29T05:40:24.917Z,4.54
2022-12-29T05:41:26.446Z,4.50
2022-12-29T05:42:27.950Z,4.60
2022-12-29T05:43:29.478Z,4.70
2022-12-29T05:44:30.997Z,4.55
2022-12-29T05:45:32.551Z,4.57
2022-12-29T05:46:34.160Z,4.54
2022-12-29T05:47:35.833Z,4.43
2022-12-29T05:48:38.305Z,4.60
2022-12-29T05:49:39.955Z,4.57
2022-12-29T05:50:41.592Z,4.63
2022-12-29T05:51:44.438Z,4.50
2022-12-29T05:52:46.189Z,4.59
2022-12-29T05:53:47.726Z,4.61
2022-12-29T05:54:49.215Z,4.61
2022-12-29T05:55:50.901Z,4.59
2022-12-29T05:56:52.426Z,4.57
2022-12-29T05:57:53.948Z,4.65
2022-12-29T05:58:55.423Z,4.66
2022-12-29T05:59:56.945Z,4.58
2022-12-29T06:00:58.483Z,4.66
2022-12-29T06:02:00.184Z,4.63
2022-12-29T06:03:01.977Z,4.76
2022-12-29T06:04:04.004Z,4.64
2022-12-29T06:05:06.301Z,4.68
2022-12-29T06:06:08.081Z,4.79
2022-12-29T06:07:10.955Z,4.92
2022-12-29T06:08:12.468Z,4.70
2022-12-29T06:09:15.072Z,4.75
2022-12-29T06:10:16.675Z,4.89
2022-12-29T06:11:18.293Z,4.81
2022-12-29T06:12:19.879Z,4.85
2022-12-29T06:13:21.397Z,4.82
2022-12-29T06:14:22.912Z,4.86
2022-12-29T06:15:24.412Z,4.84
2022-12-29T06:16:26.028Z,4.71
2022-12-29T06:17:27.551Z,4.71
2022-12-29T06:18:29.056Z,4.62
2022-12-29T06:19:30.631Z,4.70
2022-12-29T06:20:32.226Z,4.72
2022-12-29T06:21:33.738Z,4.65
2022-12-29T06:22:36.880Z,4.75
2022-12-29T06:23:38.441Z,4.72
2022-12-29T06:24:40.335Z,4.69
2022-12-29T06:25:41.852Z,4.71
2022-12-29T06:26:43.360Z,4.60
2022-12-29T06:27:45.092Z,4.75
2022-12-29T06:28:46.622Z,4.80
2022-12-29T06:29:48.169Z,4.77
2022-12-29T06:30:49.983Z,4.79
2022-12-29T06:31:51.493Z,4.74
2022-12-29T06:32:53.047Z,4.63
2022-12-29T06:33:54.546Z,4.76
2022-12-29T06:34:56.100Z,4.78
2022-12-29T06:35:57.608Z,4.75
2022-12-29T06:36:59.177Z,4.79
2022-12-29T06:38:01.978Z,4.85
2022-12-29T06:39:03.619Z,4.73
2022-12-29T06:40:06.296Z,4.58
2022-12-29T06:41:07.787Z,4.61
2022-12-29T06:42:10.233Z,4.72
2022-12-29T06:43:11.844Z,4.64
2022-12-29T06:44:13.394Z,4.43
2022-12-29T06:45:15.055Z,4.69
2022-12-29T06:46:16.616Z,4.60
2022-12-29T06:47:19.128Z,4.65
2022-12-29T06:48:20.699Z,4.81
2022-12-29T06:49:22.178Z,4.75
2022-12-29T06:50:23.655Z,4.83
2022-12-29T06:51:25.222Z,4.84
2022-12-29T06:52:26.727Z,4.84
2022-12-29T06:53:29.615Z,4.92
2022-12-29T06:54:31.733Z,4.70
2022-12-29T06:55:33.244Z,4.72
2022-12-29T06:56:34.807Z,4.75
2022-12-29T06:57:36.288Z,4.83
2022-12-29T06:58:37.773Z,4.90
2022-12-29T06:59:39.260Z,4.81
2022-12-29T07:00:40.812Z,4.73
2022-12-29T07:01:42.411Z,4.94
2022-12-29T07:02:44.080Z,4.84
2022-12-29T07:03:45.606Z,4.79
2022-12-29T07:04:47.144Z,4.74
2022-12-29T07:05:48.949Z,4.88
2022-12-29T07:06:50.467Z,4.77
2022-12-29T07:07:51.952Z,4.81
2022-12-29T07:08:54.810Z,4.73
2022-12-29T07:09:56.350Z,4.83
2022-12-29T07:10:57.843Z,4.82
2022-12-29T07:11:59.381Z,4.73
2022-12-29T07:13:00.884Z,4.83
2022-12-29T07:14:02.781Z,4.76
2022-12-29T07:15:04.830Z,4.81
2022-12-29T07:16:06.984Z,4.78
2022-12-29T07:17:08.945Z,4.86
2022-12-29T07:18:10.469Z,4.76
2022-12-29T07:19:12.155Z,4.81
2022-12-29T07:20:13.742Z,4.71
2022-12-29T07:21:15.362Z,4.69
2022-12-29T07:22:17.608Z,4.82
2022-12-29T07:23:19.173Z,4.74
2022-12-29T07:24:22.110Z,4.70
2022-12-29T07:25:23.873Z,4.72
2022-12-29T07:26:25.440Z,4.73
2022-12-29T07:27:26.975Z,4.75
2022-12-29T07:28:28.689Z,4.63
2022-12-29T07:29:30.227Z,4.75
2022-12-29T07:30:31.761Z,4.74
2022-12-29T07:31:33.323Z,4.68
2022-12-29T07:32:35.611Z,4.69
2022-12-29T07:33:37.150Z,4.57
2022-12-29T07:34:38.682Z,4.70
2022-12-29T07:35:40.209Z,4.57
2022-12-29T07:36:41.722Z,4.60
2022-12-29T07:37:43.242Z,4.64
2022-12-29T07:38:44.945Z,4.71
2022-12-29T07:39:47.791Z,4.68
2022-12-29T07:40:49.292Z,4.75
2022-12-29T07:41:50.795Z,4.85
2022-12-29T07:42:52.344Z,4.70
2022-12-29T07:43:53.824Z,4.72
2022-12-29T07:44:55.393Z,4.77
2022-12-29T07:45:57.007Z,4.83
2022-12-29T07:46:59.172Z,4.92
2022-12-29T07:48:00.925Z,4.90
2022-12-29T07:49:02.493Z,4.93
2022-12-29T07:50:05.160Z,4.94
2022-12-29T07:51:06.855Z,4.86
2022-12-29T07:52:08.346Z,4.99
2022-12-29T07:53:10.036Z,4.92
2022-12-29T07:54:11.564Z,4.81
2022-12-29T07:55:14.667Z,4.82
2022-12-29T07:56:16.188Z,4.89
2022-12-29T07:57:17.724Z,4.99
2022-12-29T07:58:19.226Z,4.94
2022-12-29T07:59:20.740Z,4.95
2022-12-29T08:00:23.381Z,4.96
2022-12-29T08:01:25.676Z,4.94
2022-12-29T08:02:27.645Z,4.98
2022-12-29T08:03:29.414Z,4.94
2022-12-29T08:04:30.987Z,4.79
2022-12-29T08:05:34.529Z,4.96
2022-12-29T08:06:36.196Z,4.89
2022-12-29T08:07:37.811Z,4.94
2022-12-29T08:08:39.347Z,4.96
2022-12-29T08:09:40.894Z,4.93
2022-12-29T08:10:43.731Z,4.87
2022-12-29T08:11:45.368Z,4.89
2022-12-29T08:12:46.947Z,4.80
2022-12-29T08:13:48.492Z,4.85
2022-12-29T08:14:50.003Z,4.89
2022-12-29T08:15:51.554Z,4.90
2022-12-29T08:16:53.082Z,4.97
2022-12-29T08:17:54.601Z,5.02
2022-12-29T08:18:56.087Z,4.95
2022-12-29T08:19:57.642Z,4.93
2022-12-29T08:21:03.049Z,4.99
2022-12-29T08:22:04.559Z,4.96
2022-12-29T08:23:06.099Z,5.02
2022-12-29T08:24:09.329Z,4.86
2022-12-29T08:25:10.861Z,4.78
2022-12-29T08:26:13.797Z,4.95
2022-12-29T08:27:20.394Z,5.08
2022-12-29T08:28:22.636Z,4.85
2022-12-29T08:29:25.201Z,5.00
2022-12-29T08:30:26.859Z,5.10
2022-12-29T08:31:28.537Z,5.13
2022-12-29T08:32:30.366Z,5.12
2022-12-29T08:33:32.359Z,5.13
2022-12-29T08:34:33.953Z,5.17
2022-12-29T08:35:35.880Z,5.28
2022-12-29T08:36:37.468Z,5.34
2022-12-29T08:37:39.044Z,5.27
2022-12-29T08:38:40.536Z,5.35
2022-12-29T08:39:42.124Z,5.32
2022-12-29T08:40:43.689Z,5.43
2022-12-29T08:41:46.541Z,5.43
2022-12-29T08:42:48.038Z,5.41
2022-12-29T08:43:50.197Z,5.47
2022-12-29T08:44:51.723Z,5.46
2022-12-29T08:45:53.282Z,5.55
2022-12-29T08:46:54.834Z,5.49
2022-12-29T08:47:56.431Z,5.62
2022-12-29T08:48:58.002Z,5.50
2022-12-29T08:49:59.511Z,5.56
2022-12-29T08:51:01.010Z,5.59
2022-12-29T08:52:02.536Z,5.68
2022-12-29T08:53:04.059Z,5.50
2022-12-29T08:54:05.633Z,5.63
2022-12-29T08:55:07.763Z,5.68
2022-12-29T08:56:10.506Z,5.83
2022-12-29T08:57:13.390Z,5.88
2022-12-29T08:58:14.938Z,5.84
2022-12-29T08:59:16.430Z,5.86
2022-12-29T09:00:18.479Z,5.79
2022-12-29T09:01:20.849Z,5.91
2022-12-29T09:02:24.608Z,5.74
2022-12-29T09:03:55.016Z,5.74
2022-12-29T09:04:48.581Z,5.73
2022-12-29T09:05:50.212Z,5.83
2022-12-29T09:06:51.700Z,5.95
2022-12-29T09:07:53.185Z,6.08
2022-12-29T09:08:55.128Z,6.11
2022-12-29T09:09:56.693Z,6.11
2022-12-29T09:11:07.341Z,6.21
2022-12-29T09:12:08.864Z,6.24
2022-12-29T09:13:12.771Z,6.25
2022-12-29T09:14:14.390Z,6.23
2022-12-29T09:15:15.957Z,6.21
2022-12-29T09:16:19.033Z,6.23
2022-12-29T09:17:20.597Z,6.32
2022-12-29T09:18:22.105Z,6.41
2022-12-29T09:19:23.610Z,6.23
2022-12-29T09:20:25.110Z,6.32
2022-12-29T09:21:26.648Z,6.40
2022-12-29T09:22:28.175Z,6.27
2022-12-29T09:23:29.921Z,6.49
2022-12-29T09:24:31.436Z,6.50
2022-12-29T09:25:32.991Z,6.57
2022-12-29T09:26:34.533Z,6.71
2022-12-29T09:27:36.638Z,6.64
2022-12-29T09:28:39.662Z,6.67
2022-12-29T09:29:41.146Z,6.81
2022-12-29T09:30:42.841Z,6.71
2022-12-29T09:31:44.409Z,6.69
2022-12-29T09:32:47.774Z,6.69
2022-12-29T09:33:52.288Z,6.68
2022-12-29T09:34:53.778Z,6.85
2022-12-29T09:35:57.356Z,6.60
2022-12-29T09:36:58.833Z,6.59
2022-12-29T09:38:00.298Z,6.65
2022-12-29T09:39:01.846Z,6.59
2022-12-29T09:40:04.053Z,6.50
2022-12-29T09:41:12.130Z,6.62
2022-12-29T09:42:20.231Z,6.69
2022-12-29T09:43:44.416Z,6.70
2022-12-29T09:45:00.493Z,6.67
2022-12-29T09:46:14.505Z,6.63
2022-12-29T09:47:18.912Z,6.69
2022-12-29T09:48:28.656Z,6.66
2022-12-29T09:49:41.088Z,6.81
2022-12-29T09:50:45.996Z,6.45
2022-12-29T09:51:51.773Z,6.62
2022-12-29T09:52:56.112Z,6.74
2022-12-29T09:54:01.314Z,6.87
2022-12-29T09:55:10.672Z,6.87
2022-12-29T09:56:19.289Z,6.84
2022-12-29T09:57:25.189Z,6.73
2022-12-29T09:58:31.455Z,6.92
2022-12-29T09:59:40.359Z,6.67
2022-12-29T10:00:55.047Z,6.83
2022-12-29T10:02:03.309Z,6.96
2022-12-29T10:03:14.759Z,6.93
2022-12-29T10:04:16.297Z,7.05
2022-12-29T10:05:29.403Z,7.00
2022-12-29T10:06:56.170Z,7.04
2022-12-29T10:08:17.758Z,7.03
2022-12-29T10:09:27.849Z,7.09
2022-12-29T10:10:38.939Z,7.17
2022-12-29T10:11:58.380Z,7.18
2022-12-29T10:13:16.783Z,7.04
2022-12-29T10:14:33.877Z,7.21
2022-12-29T10:15:58.231Z,7.09
2022-12-29T10:17:06.861Z,7.13
2022-12-29T10:18:24.651Z,7.24
2022-12-29T10:19:42.618Z,7.20
2022-12-29T10:20:52.595Z,7.22
2022-12-29T10:22:05.283Z,7.22
2022-12-29T10:23:21.879Z,7.32
2022-12-29T10:24:26.335Z,7.31
2022-12-29T10:25:33.823Z,7.25
2022-12-29T10:26:40.083Z,7.20
2022-12-29T10:27:44.535Z,7.14
2022-12-29T10:28:51.580Z,7.32
2022-12-29T10:29:56.562Z,7.44
2022-12-29T10:31:08.576Z,7.53
2022-12-29T10:32:23.265Z,7.44
2022-12-29T10:33:31.073Z,7.40
2022-12-29T10:34:37.930Z,7.65
2022-12-29T10:35:41.493Z,7.75
2022-12-29T10:36:46.160Z,7.81
2022-12-29T10:37:51.261Z,7.81
2022-12-29T10:39:02.655Z,7.98
2022-12-29T10:40:17.985Z,7.88
2022-12-29T10:41:25.778Z,7.80
2022-12-29T10:42:29.045Z,7.77
2022-12-29T10:43:34.543Z,7.75
2022-12-29T10:44:36.141Z,7.78
2022-12-29T10:45:38.462Z,7.90
2022-12-29T10:46:42.854Z,7.62
2022-12-29T10:47:54.616Z,7.91
2022-12-29T10:48:56.198Z,7.86
2022-12-29T10:49:58.345Z,7.87
2022-12-29T10:51:03.055Z,7.95
2022-12-29T10:52:09.141Z,7.63
2022-12-29T10:53:19.819Z,7.80
2022-12-29T10:54:27.007Z,7.88
2022-12-29T10:55:33.884Z,7.87
2022-12-29T10:56:43.626Z,7.77
2022-12-29T10:57:46.939Z,7.72
2022-12-29T10:58:50.771Z,7.83
2022-12-29T10:59:52.349Z,7.85
2022-12-29T11:00:55.327Z,7.87
2022-12-29T11:02:06.152Z,7.99
2022-12-29T11:03:39.201Z,7.68
2022-12-29T11:04:53.650Z,7.56
2022-12-29T11:05:58.857Z,7.66
2022-12-29T11:07:01.632Z,7.73
2022-12-29T11:08:09.458Z,7.89
2022-12-29T11:09:16.040Z,7.98
2022-12-29T11:10:20.795Z,7.67
2022-12-29T11:11:28.311Z,7.83
2022-12-29T11:12:31.745Z,7.83
2022-12-29T11:13:39.175Z,8.00
2022-12-29T11:14:42.620Z,8.00
2022-12-29T11:15:45.639Z,7.93
2022-12-29T11:16:59.859Z,7.91
2022-12-29T11:18:01.382Z,7.90
2022-12-29T11:19:03.507Z,7.99
2022-12-29T11:20:32.249Z,7.96
2022-12-29T11:21:35.944Z,7.87
2022-12-29T11:22:45.119Z,7.96
2022-12-29T11:23:56.947Z,7.90
2022-12-29T11:25:13.014Z,7.84
2022-12-29T11:26:17.830Z,7.91
2022-12-29T11:27:22.320Z,7.99
2022-12-29T11:28:23.836Z,8.08
2022-12-29T11:29:28.157Z,8.05
2022-12-29T11:30:31.946Z,8.07
2022-12-29T11:31:41.524Z,8.10
2022-12-29T11:32:51.713Z,8.14
2022-12-29T11:33:53.224Z,8.01
2022-12-29T11:34:54.820Z,7.95
2022-12-29T11:36:00.047Z,8.16
2022-12-29T11:37:04.709Z,8.06
2022-12-29T11:38:06.404Z,8.20
2022-12-29T11:39:30.099Z,8.07
2022-12-29T11:40:33.828Z,8.18
2022-12-29T11:41:35.436Z,8.20
2022-12-29T11:42:39.219Z,8.24
2022-12-29T11:43:44.280Z,8.12
2022-12-29T11:44:47.540Z,8.15
2022-12-29T11:45:49.229Z,8.24
2022-12-29T11:46:52.767Z,8.21
2022-12-29T11:47:59.103Z,8.26
2022-12-29T11:49:02.447Z,8.37
2022-12-29T11:50:08.074Z,8.38
2022-12-29T11:51:11.948Z,8.51
2022-12-29T11:52:13.786Z,8.36
2022-12-29T11:53:21.278Z,8.34
2022-12-29T11:54:26.385Z,8.25
2022-12-29T11:55:29.843Z,8.30
2022-12-29T11:56:40.883Z,8.37
2022-12-29T11:57:44.092Z,8.35
2022-12-29T11:58:45.622Z,8.45
2022-12-29T11:59:51.163Z,8.51
2022-12-29T12:00:53.235Z,8.57
2022-12-29T12:01:55.721Z,8.55
2022-12-29T12:03:01.254Z,8.52
2022-12-29T12:04:08.038Z,8.56
2022-12-29T12:05:15.612Z,8.54
2022-12-29T12:06:21.975Z,8.52
2022-12-29T12:07:35.653Z,8.70
2022-12-29T12:08:41.024Z,8.78
2022-12-29T12:09:46.479Z,8.81
2022-12-29T12:10:56.880Z,8.82
2022-12-29T12:12:01.679Z,8.83
2022-12-29T12:13:13.146Z,8.79
2022-12-29T12:14:18.816Z,8.69
2022-12-29T12:15:27.067Z,8.67
2022-12-29T12:16:36.400Z,8.79
2022-12-29T12:17:50.868Z,8.79
2022-12-29T12:18:57.965Z,8.85
2022-12-29T12:20:03.792Z,8.67
2022-12-29T12:21:11.517Z,8.79
2022-12-29T12:22:20.780Z,8.82
2022-12-29T12:23:36.553Z,8.64
2022-12-29T12:24:43.685Z,8.74
2022-12-29T12:25:52.926Z,8.76
2022-12-29T12:27:03.317Z,8.74
2022-12-29T12:28:11.873Z,8.61
2022-12-29T12:29:21.215Z,8.73
2022-12-29T12:30:44.486Z,8.81
2022-12-29T12:31:51.587Z,8.73
2022-12-29T12:33:00.191Z,8.50
2022-12-29T12:34:09.857Z,8.64
2022-12-29T12:35:18.179Z,8.66
2022-12-29T12:36:36.792Z,8.80
2022-12-29T12:37:52.113Z,8.55
2022-12-29T12:39:01.960Z,8.79
2022-12-29T12:40:22.535Z,8.81
2022-12-29T12:41:35.013Z,8.96
2022-12-29T12:42:51.723Z,8.90
2022-12-29T12:44:01.368Z,8.96
2022-12-29T12:45:28.359Z,8.84
2022-12-29T12:47:00.513Z,8.84
2022-12-29T12:48:16.495Z,8.98
2022-12-29T12:49:52.119Z,8.99
2022-12-29T12:50:59.512Z,8.74
2022-12-29T12:52:12.240Z,8.88
2022-12-29T12:53:26.910Z,8.65
2022-12-29T12:54:46.919Z,8.85
2022-12-29T12:56:02.111Z,8.79
2022-12-29T12:57:15.833Z,8.84
2022-12-29T12:58:26.174Z,8.79
2022-12-29T12:59:39.238Z,8.85
2022-12-29T13:00:50.953Z,8.82
2022-12-29T13:02:00.482Z,8.95
2022-12-29T13:03:11.782Z,8.80
2022-12-29T13:04:34.109Z,8.82
2022-12-29T13:05:51.131Z,8.90
2022-12-29T13:07:05.905Z,8.92
2022-12-29T13:08:37.557Z,8.96
2022-12-29T13:09:54.410Z,8.95
2022-12-29T13:11:01.346Z,8.89
2022-12-29T13:12:13.342Z,9.03
2022-12-29T13:13:37.886Z,9.03
2022-12-29T13:14:55.272Z,8.96
2022-12-29T13:16:12.436Z,8.89
2022-12-29T13:17:23.703Z,8.84
2022-12-29T13:19:04.498Z,8.97
2022-12-29T13:20:21.192Z,8.88
2022-12-29T13:21:32.789Z,8.99
2022-12-29T13:22:41.561Z,8.93
2022-12-29T13:23:53.685Z,8.94
2022-12-29T13:25:14.084Z,9.06
2022-12-29T13:26:21.923Z,8.87
2022-12-29T13:27:37.190Z,8.87
2022-12-29T13:28:56.508Z,8.89
2022-12-29T13:30:03.268Z,8.83
2022-12-29T13:31:13.449Z,8.95
2022-12-29T13:32:26.299Z,8.95
2022-12-29T13:33:38.028Z,9.00
2022-12-29T13:34:49.835Z,8.89
2022-12-29T13:35:59.712Z,8.84
2022-12-29T13:37:05.426Z,8.81
2022-12-29T13:38:13.722Z,8.97
2022-12-29T13:39:21.291Z,8.94
2022-12-29T13:40:27.023Z,8.94
2022-12-29T13:41:31.887Z,9.07
2022-12-29T13:42:35.260Z,9.08
2022-12-29T13:43:40.189Z,9.05
2022-12-29T13:44:46.298Z,9.13
2022-12-29T13:45:56.602Z,9.11
2022-12-29T13:47:02.763Z,9.16
2022-12-29T13:48:11.000Z,9.20
2022-12-29T13:49:16.281Z,9.14
2022-12-29T13:50:20.605Z,9.20
2022-12-29T13:51:27.998Z,9.23
2022-12-29T13:52:40.391Z,9.18
2022-12-29T13:54:01.884Z,9.30
2022-12-29T13:55:23.694Z,8.88
2022-12-29T13:56:32.438Z,9.07
2022-12-29T13:57:42.032Z,9.05
2022-12-29T13:58:48.620Z,9.06
2022-12-29T13:59:54.658Z,9.15
2022-12-29T14:01:01.378Z,9.19
2022-12-29T14:02:14.407Z,9.06
2022-12-29T14:03:41.451Z,9.01
2022-12-29T14:04:57.527Z,9.08
2022-12-29T14:06:13.646Z,9.11
2022-12-29T14:07:18.435Z,9.05
2022-12-29T14:08:20.086Z,9.21
2022-12-29T14:09:50.298Z,9.16
2022-12-29T14:10:52.775Z,9.19
2022-12-29T14:11:54.932Z,9.29
2022-12-29T14:13:03.295Z,9.27
2022-12-29T14:14:13.660Z,9.32
2022-12-29T14:15:22.116Z,9.31
2022-12-29T14:16:30.196Z,9.35
2022-12-29T14:17:31.811Z,9.26
2022-12-29T14:18:41.875Z,9.32
2022-12-29T14:19:46.517Z,9.38
2022-12-29T14:20:53.303Z,9.43
2022-12-29T14:21:58.051Z,9.28
2022-12-29T14:23:15.995Z,9.31
2022-12-29T14:24:45.184Z,9.23
2022-12-29T14:26:00.184Z,9.47
2022-12-29T14:27:02.049Z,9.28
2022-12-29T14:28:17.237Z,9.39
2022-12-29T14:29:44.115Z,9.41
2022-12-29T14:30:51.655Z,9.34
2022-12-29T14:31:53.664Z,9.34
2022-12-29T14:33:03.384Z,9.33
2022-12-29T14:34:30.256Z,9.36